createdAt,value
2018-03-15T00:02:28.805Z,17.67
2018-03-15T00:04:57.941Z,15.50
2018-03-15T00:07:25.682Z,15.30
2018-03-15T00:09:58.308Z,19.05
2018-03-15T00:12:26.082Z,17.48
2018-03-15T00:14:56.441Z,16.10
2018-03-15T00:17:24.247Z,18.62
2018-03-15T00:19:52.001Z,20.65
2018-03-15T00:22:23.654Z,20.15
2018-03-15T00:24:51.458Z,21.77
2018-03-15T00:29:59.036Z,19.48
2018-03-15T00:32:27.789Z,23.15
2018-03-15T00:34:55.590Z,24.23
2018-03-15T00:37:24.163Z,23.85
2018-03-15T00:39:54.766Z,24.02
2018-03-15T00:42:23.174Z,26.27
2018-03-15T00:44:51.747Z,24.20
2018-03-15T00:47:21.309Z,23.80
2018-03-15T00:49:49.105Z,23.12
2018-03-15T00:52:18.587Z,21.25
2018-03-15T00:54:46.411Z,21.40
2018-03-15T00:57:16.575Z,25.23
2018-03-15T00:59:45.689Z,20.65
2018-03-15T01:02:14.745Z,24.35
2018-03-15T01:04:42.515Z,21.70
2018-03-15T01:07:10.319Z,23.05
2018-03-15T01:09:39.038Z,22.40
2018-03-15T01:12:06.802Z,23.00
2018-03-15T01:14:35.726Z,22.30
2018-03-15T01:17:03.491Z,21.98
2018-03-15T01:19:34.006Z,20.33
2018-03-15T01:22:01.910Z,23.25
2018-03-15T01:24:37.869Z,24.70
2018-03-15T01:27:06.438Z,20.80
2018-03-15T01:29:36.501Z,21.90
2018-03-15T01:32:04.264Z,21.60
2018-03-15T01:34:34.793Z,22.15
2018-03-15T01:37:02.551Z,21.67
2018-03-15T01:39:33.221Z,22.20
2018-03-15T01:42:01.093Z,22.45
2018-03-15T01:44:31.659Z,21.92
2018-03-15T01:46:59.495Z,21.35
2018-03-15T01:49:32.516Z,19.80
2018-03-15T01:52:00.282Z,20.45
2018-03-15T01:54:28.177Z,22.80
2018-03-15T01:56:56.064Z,19.75
2018-03-15T01:59:24.596Z,19.55
2018-03-15T02:01:54.794Z,20.65
2018-03-15T02:04:24.531Z,19.33
2018-03-15T02:06:52.300Z,17.12
2018-03-15T02:09:20.675Z,18.25
2018-03-15T02:11:48.488Z,18.58
2018-03-15T02:14:16.270Z,17.87
2018-03-15T02:16:44.042Z,17.52
2018-03-15T02:19:11.875Z,21.12
2018-03-15T02:21:39.634Z,18.35
2018-03-15T02:24:08.146Z,20.05
2018-03-15T02:26:37.542Z,16.73
2018-03-15T02:29:05.320Z,19.20
2018-03-15T02:31:36.925Z,19.60
2018-03-15T02:34:04.783Z,20.48
2018-03-15T02:36:34.342Z,18.90
2018-03-15T02:39:02.911Z,20.25
2018-03-15T02:41:30.721Z,20.35
2018-03-15T02:43:59.871Z,20.37
2018-03-15T02:46:27.663Z,21.00
2018-03-15T02:48:56.271Z,22.65
2018-03-15T02:51:25.356Z,22.00
2018-03-15T02:53:53.185Z,22.55
2018-03-15T02:56:25.316Z,22.92
2018-03-15T02:58:53.901Z,24.27
2018-03-15T03:01:25.318Z,22.60
2018-03-15T03:03:53.846Z,20.75
2018-03-15T03:06:22.035Z,23.08
2018-03-15T03:08:49.997Z,24.75
2018-03-15T03:11:17.750Z,23.12
2018-03-15T03:13:45.532Z,22.00
2018-03-15T03:16:13.337Z,21.87
2018-03-15T03:18:41.098Z,23.92
2018-03-15T03:21:09.648Z,22.55
2018-03-15T03:23:38.315Z,24.70
2018-03-15T03:26:06.274Z,21.60
2018-03-15T03:28:34.262Z,24.20
2018-03-15T03:31:02.832Z,22.73
2018-03-15T03:33:30.598Z,22.92
2018-03-15T03:35:59.751Z,22.80
2018-03-15T03:38:27.592Z,21.90
2018-03-15T03:40:55.339Z,22.58
2018-03-15T03:43:23.908Z,22.70
2018-03-15T03:45:52.496Z,23.10
2018-03-15T03:48:21.011Z,21.30
2018-03-15T03:50:48.766Z,23.02
2018-03-15T03:53:16.569Z,22.37
2018-03-15T03:55:44.346Z,23.20
2018-03-15T03:58:12.099Z,22.67
2018-03-15T04:00:42.344Z,22.90
2018-03-15T04:03:10.870Z,22.45
2018-03-15T04:05:38.626Z,24.15
2018-03-15T04:08:06.421Z,22.70
2018-03-15T04:10:34.175Z,21.27
2018-03-15T04:13:02.287Z,20.75
2018-03-15T04:15:30.154Z,22.90
2018-03-15T04:17:57.939Z,22.05
2018-03-15T04:20:26.156Z,22.85
2018-03-15T04:22:54.005Z,25.40
2018-03-15T04:25:22.029Z,22.58
2018-03-15T04:27:49.811Z,21.35
2018-03-15T04:30:17.613Z,24.98
2018-03-15T04:32:46.138Z,22.10
2018-03-15T04:35:13.887Z,22.30
2018-03-15T04:37:41.698Z,24.17
2018-03-15T04:40:09.505Z,20.40
2018-03-15T04:42:38.454Z,21.35
2018-03-15T04:45:06.338Z,19.12
2018-03-15T04:47:34.454Z,20.02
2018-03-15T04:50:02.213Z,21.45
2018-03-15T04:52:30.017Z,20.60
2018-03-15T04:54:57.774Z,19.80
2018-03-15T04:57:25.535Z,17.27
2018-03-15T04:59:53.333Z,18.05
2018-03-15T05:02:21.849Z,17.17
2018-03-15T05:04:50.089Z,20.17
2018-03-15T05:07:18.696Z,19.52
2018-03-15T05:09:46.438Z,18.20
2018-03-15T05:12:15.550Z,21.37
2018-03-15T05:14:43.349Z,23.35
2018-03-15T05:17:11.767Z,21.33
2018-03-15T05:19:40.598Z,19.60
2018-03-15T05:22:08.403Z,24.65
2018-03-15T05:24:37.106Z,20.85
2018-03-15T05:27:05.087Z,20.60
2018-03-15T05:29:32.905Z,25.12
2018-03-15T05:32:00.670Z,19.80
2018-03-15T05:34:28.427Z,23.55
2018-03-15T05:36:56.225Z,25.05
2018-03-15T05:39:24.022Z,25.08
2018-03-15T05:41:51.773Z,28.08
2018-03-15T05:44:19.607Z,25.77
2018-03-15T05:46:47.397Z,24.25
2018-03-15T05:49:15.975Z,27.98
2018-03-15T05:51:45.906Z,27.75
2018-03-15T05:54:15.401Z,28.35
2018-03-15T05:56:43.146Z,30.45
2018-03-15T05:59:11.794Z,29.05
2018-03-15T06:01:40.355Z,30.62
2018-03-15T06:04:08.360Z,31.55
2018-03-15T06:06:36.276Z,28.15
2018-03-15T06:09:04.085Z,26.90
2018-03-15T06:11:32.595Z,32.03
2018-03-15T06:14:00.524Z,34.47
2018-03-15T06:16:28.277Z,33.10
2018-03-15T06:18:56.809Z,32.60
2018-03-15T06:21:24.766Z,34.20
2018-03-15T06:23:52.535Z,34.75
2018-03-15T06:26:20.286Z,33.75
2018-03-15T06:28:48.194Z,34.08
2018-03-15T06:31:15.947Z,32.72
2018-03-15T06:33:43.690Z,33.08
2018-03-15T06:36:11.505Z,32.50
2018-03-15T06:38:40.044Z,34.30
2018-03-15T06:41:07.799Z,36.10
2018-03-15T06:43:41.426Z,30.15
2018-03-15T06:46:09.659Z,32.10
2018-03-15T06:48:37.514Z,32.95
2018-03-15T06:51:05.366Z,29.75
2018-03-15T06:53:33.139Z,28.10
2018-03-15T06:56:00.890Z,28.10
2018-03-15T06:58:28.690Z,27.48
2018-03-15T07:00:56.448Z,30.05
2018-03-15T07:03:24.223Z,27.40
2018-03-15T07:05:52.031Z,26.17
2018-03-15T07:08:19.778Z,28.17
2018-03-15T07:10:48.302Z,29.90
2018-03-15T07:13:16.118Z,29.27
2018-03-15T07:15:44.632Z,32.45
2018-03-15T07:18:12.381Z,28.52
2018-03-15T07:20:40.183Z,30.23
2018-03-15T07:23:08.314Z,31.90
2018-03-15T07:25:36.067Z,32.38
2018-03-15T07:28:03.879Z,34.15
2018-03-15T07:30:32.396Z,34.00
2018-03-15T07:33:00.922Z,32.55
2018-03-15T07:35:28.728Z,31.95
2018-03-15T07:37:56.518Z,33.20
2018-03-15T07:40:24.265Z,33.60
2018-03-15T07:42:52.111Z,33.65
2018-03-15T07:45:19.863Z,32.58
2018-03-15T07:47:47.661Z,36.28
2018-03-15T07:50:15.462Z,31.75
2018-03-15T07:52:43.214Z,33.10
2018-03-15T07:55:10.963Z,36.13
2018-03-15T07:57:38.776Z,39.95
2018-03-15T08:00:06.534Z,36.40
2018-03-15T08:02:34.285Z,36.38
2018-03-15T08:05:05.547Z,35.05
2018-03-15T08:07:33.846Z,33.33
2018-03-15T08:10:05.238Z,35.47
2018-03-15T08:12:33.971Z,35.80
2018-03-15T08:15:09.475Z,31.17
2018-03-15T08:17:37.250Z,35.83
2018-03-15T08:20:10.093Z,36.03
2018-03-15T08:22:39.894Z,33.50
2018-03-15T08:25:07.639Z,32.05
2018-03-15T08:27:36.205Z,32.00
2018-03-15T08:30:04.738Z,33.83
2018-03-15T08:32:35.389Z,37.42
2018-03-15T08:35:13.126Z,30.35
2018-03-15T08:37:42.494Z,34.47
2018-03-15T08:40:11.810Z,33.88
2018-03-15T08:42:42.899Z,35.00
2018-03-15T08:45:26.478Z,36.47
2018-03-15T08:48:04.979Z,32.10
2018-03-15T08:50:32.725Z,32.15
2018-03-15T08:53:07.129Z,33.40
2018-03-15T08:55:34.932Z,31.80
2018-03-15T08:58:03.471Z,34.70
2018-03-15T09:00:31.239Z,34.85
2018-03-15T09:02:59.071Z,36.38
2018-03-15T09:05:29.769Z,36.00
2018-03-15T09:08:15.040Z,35.35
2018-03-15T09:10:48.160Z,35.75
2018-03-15T09:13:20.975Z,37.13
2018-03-15T09:15:48.727Z,35.05
2018-03-15T09:18:16.487Z,38.50
2018-03-15T09:20:44.289Z,35.03
2018-03-15T09:23:15.826Z,34.90
2018-03-15T09:25:50.543Z,39.10
2018-03-15T09:28:19.831Z,33.67
2018-03-15T09:30:48.338Z,35.65
2018-03-15T09:33:19.847Z,34.58
2018-03-15T09:35:48.346Z,34.90
2018-03-15T09:51:46.250Z,30.33
2018-03-15T09:54:14.037Z,30.33
2018-03-15T09:56:44.842Z,28.80
2018-03-15T09:59:14.536Z,30.35
2018-03-15T10:01:42.305Z,32.88
2018-03-15T10:04:10.682Z,31.85
2018-03-15T10:06:53.388Z,32.25
2018-03-15T10:09:21.170Z,30.55
2018-03-15T10:11:49.846Z,28.87
2018-03-15T10:14:18.720Z,27.95
2018-03-15T10:16:47.071Z,27.48
2018-03-15T10:19:14.877Z,29.75
2018-03-15T10:21:43.337Z,29.23
2018-03-15T10:24:25.985Z,27.85
2018-03-15T10:26:53.828Z,28.27
2018-03-15T10:29:21.627Z,31.67
2018-03-15T10:31:49.422Z,27.77
2018-03-15T10:34:17.274Z,30.30
2018-03-15T10:36:52.886Z,30.90
2018-03-15T10:39:24.470Z,30.27
2018-03-15T10:41:53.100Z,31.73
2018-03-15T10:44:20.907Z,32.03
2018-03-15T10:46:49.495Z,31.55
2018-03-15T10:49:17.282Z,32.50
2018-03-15T10:51:45.066Z,28.77
2018-03-15T10:54:12.919Z,29.52
2018-03-15T10:56:40.698Z,30.92
2018-03-15T10:59:08.459Z,32.05
2018-03-15T11:01:42.689Z,30.65
2018-03-15T11:04:11.262Z,35.28
2018-03-15T11:06:41.859Z,33.15
2018-03-15T11:09:14.314Z,32.85
2018-03-15T11:11:42.109Z,29.70
2018-03-15T11:14:09.926Z,30.02
2018-03-15T11:16:38.515Z,29.52
2018-03-15T11:19:06.293Z,30.00
2018-03-15T11:21:34.077Z,30.88
2018-03-15T11:24:01.962Z,33.80
2018-03-15T11:26:29.700Z,30.83
2018-03-15T11:28:57.476Z,30.08
2018-03-15T11:31:26.106Z,29.77
2018-03-15T11:33:53.891Z,30.17
2018-03-15T11:36:21.674Z,29.77
2018-03-15T11:38:49.508Z,33.78
2018-03-15T11:41:17.258Z,31.92
2018-03-15T11:43:45.075Z,34.03
2018-03-15T11:46:12.896Z,32.47
2018-03-15T11:48:40.707Z,31.85
2018-03-15T11:51:08.486Z,31.33
2018-03-15T11:53:36.306Z,31.37
2018-03-15T11:56:04.073Z,33.38
2018-03-15T11:58:31.847Z,34.40
2018-03-15T12:00:59.671Z,37.35
2018-03-15T12:03:27.474Z,33.45
2018-03-15T12:05:56.042Z,30.35
2018-03-15T12:08:23.899Z,29.98
2018-03-15T12:10:51.679Z,30.83
2018-03-15T12:13:20.204Z,32.13
2018-03-15T12:15:48.797Z,31.45
2018-03-15T12:18:16.562Z,30.10
2018-03-15T12:20:45.083Z,29.35
2018-03-15T12:23:12.944Z,30.50
2018-03-15T12:25:40.698Z,28.83
2018-03-15T12:28:08.537Z,29.77
2018-03-15T12:30:36.363Z,32.47
2018-03-15T12:33:04.165Z,30.98
2018-03-15T12:35:32.034Z,24.33
2018-03-15T12:37:59.845Z,26.90
2018-03-15T12:40:27.585Z,27.60
2018-03-15T12:42:55.372Z,30.27
2018-03-15T12:45:23.184Z,32.90
2018-03-15T12:47:50.934Z,30.52
2018-03-15T12:50:19.467Z,32.75
2018-03-15T12:52:48.042Z,33.75
2018-03-15T12:55:16.559Z,35.50
2018-03-15T12:57:45.373Z,32.55
2018-03-15T13:00:13.170Z,34.22
2018-03-15T13:02:40.923Z,35.85
2018-03-15T13:05:08.667Z,34.65
2018-03-15T13:07:36.474Z,36.38
2018-03-15T13:10:04.255Z,37.17
2018-03-15T13:12:32.764Z,36.05
2018-03-15T13:15:00.569Z,34.90
2018-03-15T13:17:28.401Z,33.38
2018-03-15T13:19:56.150Z,32.45
2018-03-15T13:22:23.991Z,29.45
2018-03-15T13:24:52.519Z,30.88
2018-03-15T13:27:20.278Z,30.50
2018-03-15T13:29:48.088Z,29.00
2018-03-15T13:32:16.622Z,30.60
2018-03-15T13:34:44.374Z,30.48
2018-03-15T13:37:12.178Z,26.48
2018-03-15T13:39:39.934Z,29.63
2018-03-15T13:42:07.686Z,30.25
2018-03-15T13:44:36.282Z,29.10
2018-03-15T13:47:04.035Z,28.60
2018-03-15T13:49:31.815Z,30.15
2018-03-15T13:51:59.662Z,30.17
2018-03-15T13:54:27.413Z,24.85
2018-03-15T13:56:55.169Z,25.58
2018-03-15T13:59:22.978Z,27.87
2018-03-15T14:01:51.501Z,27.58
2018-03-15T14:04:19.247Z,25.65
2018-03-15T14:06:47.047Z,24.90
2018-03-15T14:09:14.803Z,26.30
2018-03-15T14:11:42.562Z,29.52
2018-03-15T14:14:10.366Z,29.20
2018-03-15T14:16:38.885Z,33.22
2018-03-15T14:19:06.638Z,28.83
2018-03-15T14:21:34.434Z,35.70
2018-03-15T14:24:02.183Z,32.13
2018-03-15T14:26:29.931Z,28.08
2018-03-15T14:28:57.725Z,29.70
2018-03-15T14:31:25.473Z,27.70
2018-03-15T14:33:53.242Z,31.67
2018-03-15T14:36:21.046Z,30.17
2018-03-15T14:38:49.563Z,31.42
2018-03-15T14:41:17.308Z,28.20
2018-03-15T14:43:45.113Z,32.75
2018-03-15T14:46:12.892Z,25.62
2018-03-15T14:48:40.640Z,23.77
2018-03-15T14:51:08.446Z,24.65
2018-03-15T14:53:36.190Z,24.73
2018-03-15T14:56:04.710Z,23.05
2018-03-15T14:58:32.549Z,22.35
2018-03-15T15:01:00.308Z,24.23
2018-03-15T15:03:28.822Z,23.73
2018-03-15T15:05:56.623Z,22.55
2018-03-15T15:08:24.396Z,22.58
2018-03-15T15:10:52.910Z,23.30
2018-03-15T15:13:20.711Z,22.05
2018-03-15T15:15:48.452Z,23.60
2018-03-15T15:18:16.216Z,21.83
2018-03-15T15:20:44.931Z,26.70
2018-03-15T15:23:12.686Z,25.92
2018-03-15T15:25:40.432Z,25.40
2018-03-15T15:28:08.307Z,27.65
2018-03-15T15:30:36.061Z,30.77
2018-03-15T15:33:03.813Z,31.40
2018-03-15T15:35:31.618Z,29.27
2018-03-15T15:38:00.135Z,33.25
2018-03-15T15:40:27.886Z,29.98
2018-03-15T15:42:55.690Z,27.75
2018-03-15T15:45:23.441Z,30.98
2018-03-15T15:47:51.185Z,32.88
2018-03-15T15:50:18.992Z,31.75
2018-03-15T15:52:46.793Z,36.10
2018-03-15T15:55:14.557Z,31.52
2018-03-15T15:57:42.509Z,24.50
2018-03-15T16:00:11.959Z,31.48
2018-03-15T16:02:39.751Z,32.05
2018-03-15T16:05:07.574Z,28.48
2018-03-15T16:07:35.324Z,29.42
2018-03-15T16:10:03.085Z,28.70
2018-03-15T16:12:30.899Z,26.62
2018-03-15T16:14:58.649Z,29.77
2018-03-15T16:17:26.415Z,25.80
2018-03-15T16:19:57.706Z,28.95
2018-03-15T16:22:25.458Z,32.58
2018-03-15T16:24:53.982Z,32.35
2018-03-15T16:27:21.789Z,33.90
2018-03-15T16:29:50.302Z,30.83
2018-03-15T16:32:18.053Z,31.85
2018-03-15T16:34:45.854Z,32.53
2018-03-15T16:37:13.599Z,34.38
2018-03-15T16:39:41.363Z,30.23
2018-03-15T16:42:09.172Z,29.42
2018-03-15T16:44:37.705Z,30.55
2018-03-15T16:47:05.462Z,34.20
2018-03-15T16:49:33.262Z,29.33
2018-03-15T16:52:01.030Z,30.60
2018-03-15T16:54:28.783Z,35.20
2018-03-15T16:56:56.602Z,29.05
2018-03-15T16:59:24.388Z,32.00
2018-03-15T17:01:52.981Z,34.00
2018-03-15T17:04:20.845Z,39.03
2018-03-15T17:06:48.658Z,36.00
2018-03-15T17:09:16.429Z,40.00
2018-03-15T17:11:44.878Z,36.05
2018-03-15T17:14:13.414Z,43.78
2018-03-15T17:16:41.174Z,34.97
2018-03-15T17:19:09.046Z,39.60
2018-03-15T17:21:36.834Z,35.70
2018-03-15T17:24:04.646Z,38.20
2018-03-15T17:26:32.479Z,34.50
2018-03-15T17:29:00.282Z,35.53
2018-03-15T17:31:28.103Z,41.60
2018-03-15T17:33:55.938Z,40.67
2018-03-15T17:36:23.719Z,40.22
2018-03-15T17:38:52.275Z,33.08
2018-03-15T17:41:20.111Z,38.25
2018-03-15T17:43:47.890Z,37.60
2018-03-15T17:46:15.643Z,42.65
2018-03-15T17:48:43.446Z,37.42
2018-03-15T17:51:11.985Z,37.17
2018-03-15T17:53:39.735Z,32.33
2018-03-15T17:56:07.641Z,40.30
2018-03-15T17:58:35.408Z,38.70
2018-03-15T18:01:03.206Z,36.83
2018-03-15T18:03:31.019Z,35.60
2018-03-15T18:05:58.792Z,34.17
2018-03-15T18:08:26.566Z,35.42
2018-03-15T18:10:55.151Z,30.27
2018-03-15T18:13:23.705Z,37.35
2018-03-15T18:15:51.542Z,33.85
2018-03-15T18:18:19.343Z,37.75
2018-03-15T18:20:47.105Z,37.40
2018-03-15T18:23:15.633Z,35.55
2018-03-15T18:25:43.436Z,33.65
2018-03-15T18:28:11.211Z,32.53
2018-03-15T18:30:39.025Z,32.45
2018-03-15T18:33:06.862Z,31.70
2018-03-15T18:35:35.379Z,35.00
2018-03-15T18:38:03.145Z,36.42
2018-03-15T18:40:30.944Z,34.03
2018-03-15T18:42:58.699Z,34.30
2018-03-15T18:45:27.249Z,33.30
2018-03-15T18:47:55.094Z,34.30
2018-03-15T18:50:22.856Z,34.92
2018-03-15T18:52:50.629Z,35.80
2018-03-15T18:55:18.434Z,31.23
2018-03-15T18:57:46.226Z,35.60
2018-03-15T19:00:13.984Z,33.33
2018-03-15T19:02:41.792Z,35.05
2018-03-15T19:05:10.258Z,36.40
2018-03-15T19:07:38.015Z,41.50
2018-03-15T19:10:05.823Z,35.25
2018-03-15T19:12:33.593Z,34.70
2018-03-15T19:15:02.110Z,28.98
2018-03-15T19:17:29.923Z,37.78
2018-03-15T19:19:57.671Z,32.90
2018-03-15T19:22:25.425Z,33.97
2018-03-15T19:24:53.244Z,32.75
2018-03-15T19:27:20.990Z,35.28
2018-03-15T19:29:49.497Z,31.48
2018-03-15T19:32:17.302Z,35.63
2018-03-15T19:34:45.057Z,33.72
2018-03-15T19:37:12.797Z,34.10
2018-03-15T19:39:40.614Z,31.75
2018-03-15T19:42:09.132Z,34.60
2018-03-15T19:44:36.885Z,35.10
2018-03-15T19:47:04.706Z,37.20
2018-03-15T19:49:32.462Z,34.05
2018-03-15T19:52:00.218Z,36.22
2018-03-15T19:54:28.018Z,33.35
2018-03-15T19:56:55.771Z,31.77
2018-03-15T19:59:24.293Z,34.85
2018-03-15T20:01:52.111Z,36.78
2018-03-15T20:04:20.626Z,32.55
2018-03-15T20:06:48.367Z,35.33
2018-03-15T20:09:16.189Z,35.38
2018-03-15T20:11:43.988Z,32.92
2018-03-15T20:14:12.513Z,33.58
2018-03-15T20:16:40.325Z,32.38
2018-03-15T20:19:14.516Z,36.83
2018-03-15T20:21:42.313Z,30.62
2018-03-15T20:24:15.859Z,29.55
2018-03-15T20:26:43.775Z,30.75
2018-03-15T20:29:11.542Z,29.58
2018-03-15T20:31:41.930Z,32.67
2018-03-15T20:34:12.235Z,34.65
2018-03-15T20:36:39.993Z,31.35
2018-03-15T20:39:13.467Z,31.80
2018-03-15T20:41:41.220Z,31.90
2018-03-15T20:44:08.985Z,29.90
2018-03-15T20:46:42.386Z,32.42
2018-03-15T20:49:13.077Z,31.37
2018-03-15T20:51:41.620Z,32.58
2018-03-15T20:54:09.419Z,29.17
2018-03-15T20:56:37.935Z,29.05
2018-03-15T20:59:05.750Z,29.10
2018-03-15T21:01:34.351Z,32.92
2018-03-15T21:04:02.111Z,31.27
2018-03-15T21:06:29.923Z,32.05
2018-03-15T21:08:58.847Z,34.85
2018-03-15T21:11:35.382Z,30.17
2018-03-15T21:14:03.155Z,29.52
2018-03-15T21:16:30.980Z,30.73
2018-03-15T21:18:58.803Z,21.25
2018-03-15T21:21:27.318Z,32.90
2018-03-15T21:23:55.132Z,26.02
2018-03-15T21:26:22.885Z,28.55
2018-03-15T21:28:50.637Z,31.50
2018-03-15T21:31:18.442Z,31.55
2018-03-15T21:33:46.958Z,31.35
2018-03-15T21:36:14.721Z,25.75
2018-03-15T21:38:42.535Z,29.37
2018-03-15T21:41:11.047Z,29.55
2018-03-15T21:43:38.789Z,26.92
2018-03-15T21:46:06.581Z,31.90
2018-03-15T21:48:34.370Z,28.40
2018-03-15T21:51:02.118Z,31.85
2018-03-15T21:53:29.918Z,31.02
2018-03-15T21:55:58.439Z,31.25
2018-03-15T21:58:26.183Z,31.85
2018-03-15T22:00:53.977Z,29.63
2018-03-15T22:03:21.730Z,29.17
2018-03-15T22:05:49.502Z,29.40
2018-03-15T22:08:18.108Z,31.60
2018-03-15T22:10:45.860Z,28.00
2018-03-15T22:13:13.617Z,24.48
2018-03-15T22:15:46.622Z,27.52
2018-03-15T22:18:15.363Z,31.73
2018-03-15T22:20:43.171Z,29.20
2018-03-15T22:23:10.915Z,28.30
2018-03-15T22:25:38.662Z,25.85
2018-03-15T22:28:06.463Z,28.50
2018-03-15T22:30:34.214Z,29.23
2018-03-15T22:33:01.990Z,27.02
2018-03-15T22:35:30.569Z,24.15
2018-03-15T22:37:59.095Z,27.55
2018-03-15T22:40:26.846Z,31.90
2018-03-15T22:42:54.650Z,27.98
2018-03-15T22:45:22.398Z,31.92
2018-03-15T22:47:50.154Z,27.45
2018-03-15T22:50:17.983Z,27.52
2018-03-15T22:52:45.753Z,26.90
2018-03-15T22:55:13.524Z,28.83
2018-03-15T22:57:41.332Z,32.88
2018-03-15T23:00:09.102Z,27.87
2018-03-15T23:02:36.850Z,28.05
2018-03-15T23:05:04.664Z,28.23
2018-03-15T23:07:32.410Z,31.40
2018-03-15T23:10:01.037Z,29.65
2018-03-15T23:12:28.839Z,30.60
2018-03-15T23:14:57.363Z,32.17
2018-03-15T23:17:25.115Z,30.77
2018-03-15T23:19:52.924Z,36.08
2018-03-15T23:22:20.715Z,29.80
2018-03-15T23:24:48.806Z,28.62
2018-03-15T23:27:16.725Z,28.23
2018-03-15T23:29:44.490Z,32.83
2018-03-15T23:32:12.243Z,36.65
2018-03-15T23:34:40.050Z,36.33
2018-03-15T23:37:07.804Z,39.67
2018-03-15T23:39:36.322Z,36.80
2018-03-15T23:42:04.158Z,33.05
2018-03-15T23:44:31.966Z,36.53
2018-03-15T23:46:59.732Z,38.97
2018-03-15T23:49:27.562Z,34.20
2018-03-15T23:51:55.305Z,28.05
2018-03-15T23:54:23.051Z,34.83
2018-03-15T23:56:51.619Z,36.15
2018-03-15T23:59:19.371Z,38.60
